createdAt,value
2022-12-01T00:01:15.900Z,91.40
2022-12-01T00:03:43.055Z,91.50
2022-12-01T00:06:18.031Z,91.40
2022-12-01T00:09:06.161Z,91.50
2022-12-01T00:11:34.555Z,91.50
2022-12-01T00:14:01.694Z,91.40
2022-12-01T00:16:28.748Z,91.40
2022-12-01T00:18:56.135Z,91.40
2022-12-01T00:21:24.567Z,91.40
2022-12-01T00:23:53.791Z,91.40
2022-12-01T00:26:21.781Z,91.40
2022-12-01T00:28:52.827Z,91.40
2022-12-01T00:31:20.235Z,91.40
2022-12-01T00:33:46.963Z,91.40
2022-12-01T00:36:14.096Z,91.40
2022-12-01T00:38:41.063Z,91.40
2022-12-01T00:41:07.822Z,91.40
2022-12-01T00:43:34.696Z,91.50
2022-12-01T00:46:01.521Z,91.50
2022-12-01T00:48:28.283Z,91.50
2022-12-01T00:50:55.844Z,91.50
2022-12-01T00:53:23.015Z,91.50
2022-12-01T00:55:49.746Z,91.50
2022-12-01T00:58:16.584Z,91.50
2022-12-01T01:00:43.263Z,91.60
2022-12-01T01:03:11.012Z,91.50
2022-12-01T01:05:39.282Z,91.60
2022-12-01T01:08:13.245Z,91.60
2022-12-01T01:10:41.757Z,91.60
2022-12-01T01:13:09.053Z,91.60
2022-12-01T01:15:36.273Z,91.60
2022-12-01T01:18:04.039Z,91.60
2022-12-01T01:20:31.522Z,91.60
2022-12-01T01:22:58.366Z,91.70
2022-12-01T01:25:25.275Z,91.70
2022-12-01T01:27:51.961Z,91.70
2022-12-01T01:30:18.799Z,91.70
2022-12-01T01:32:45.524Z,92.20
2022-12-01T01:35:12.183Z,91.80
2022-12-01T01:37:38.875Z,91.80
2022-12-01T01:40:06.484Z,91.80
2022-12-01T01:42:33.246Z,91.80
2022-12-01T01:44:59.975Z,91.90
2022-12-01T01:47:39.668Z,91.90
2022-12-01T01:50:12.781Z,91.90
2022-12-01T01:52:44.903Z,91.90
2022-12-01T01:55:13.350Z,91.90
2022-12-01T01:57:40.620Z,91.80
2022-12-01T02:00:07.977Z,91.80
2022-12-01T02:02:40.760Z,91.90
2022-12-01T02:05:11.081Z,91.90
2022-12-01T02:07:41.977Z,91.90
2022-12-01T02:10:12.860Z,91.90
2022-12-01T02:13:04.412Z,92.00
2022-12-01T02:15:52.843Z,92.00
2022-12-01T02:18:42.321Z,92.00
2022-12-01T02:21:23.994Z,92.00
2022-12-01T02:24:18.764Z,92.00
2022-12-01T02:26:52.523Z,92.00
2022-12-01T02:29:41.778Z,92.00
2022-12-01T02:32:42.358Z,92.00
2022-12-01T02:35:16.590Z,92.00
2022-12-01T02:38:00.244Z,92.00
2022-12-01T02:40:29.294Z,92.00
2022-12-01T02:43:05.827Z,92.10
2022-12-01T02:45:40.792Z,92.10
2022-12-01T02:48:25.123Z,92.10
2022-12-01T02:50:53.745Z,92.10
2022-12-01T02:53:21.774Z,92.10
2022-12-01T02:55:57.647Z,92.10
2022-12-01T02:58:24.854Z,92.10
2022-12-01T03:01:00.568Z,92.10
2022-12-01T03:03:39.737Z,92.10
2022-12-01T03:06:41.268Z,92.10
2022-12-01T03:09:33.824Z,92.10
2022-12-01T03:12:21.449Z,92.10
2022-12-01T03:15:23.347Z,92.20
2022-12-01T03:17:59.341Z,92.20
2022-12-01T03:20:39.553Z,92.20
2022-12-01T03:23:10.380Z,92.20
2022-12-01T03:25:40.077Z,92.20
2022-12-01T03:28:24.589Z,92.20
2022-12-01T03:30:55.729Z,92.20
2022-12-01T03:33:35.240Z,92.20
2022-12-01T03:36:08.841Z,92.20
2022-12-01T03:38:37.520Z,92.20
2022-12-01T03:41:14.781Z,92.20
2022-12-01T03:43:47.997Z,92.20
2022-12-01T03:46:35.200Z,92.20
2022-12-01T03:49:03.731Z,92.20
2022-12-01T03:51:50.733Z,92.20
2022-12-01T03:54:33.679Z,92.20
2022-12-01T03:57:05.763Z,92.20
2022-12-01T03:59:36.020Z,92.20
2022-12-01T04:02:03.037Z,92.20
2022-12-01T04:04:29.799Z,92.20
2022-12-01T04:06:56.437Z,92.20
2022-12-01T04:09:23.096Z,92.10
2022-12-01T04:12:25.306Z,92.10
2022-12-01T04:14:52.035Z,92.10
2022-12-01T04:17:19.083Z,92.10
2022-12-01T04:19:45.813Z,92.10
2022-12-01T04:22:12.673Z,92.10
2022-12-01T04:24:39.565Z,92.10
2022-12-01T04:27:06.284Z,92.10
2022-12-01T04:29:33.023Z,92.00
2022-12-01T04:31:59.738Z,92.00
2022-12-01T04:34:26.519Z,92.00
2022-12-01T04:36:53.231Z,92.00
2022-12-01T04:39:19.908Z,92.00
2022-12-01T04:41:46.655Z,91.90
2022-12-01T04:44:14.809Z,91.90
2022-12-01T04:46:41.653Z,91.90
2022-12-01T04:49:09.061Z,91.90
2022-12-01T04:51:36.475Z,91.90
2022-12-01T04:54:03.659Z,91.90
2022-12-01T04:56:30.320Z,91.90
2022-12-01T04:58:58.972Z,91.90
2022-12-01T05:01:25.858Z,91.90
2022-12-01T05:03:52.917Z,91.90
2022-12-01T05:06:22.878Z,91.90
2022-12-01T05:08:50.376Z,91.90
2022-12-01T05:11:18.110Z,91.90
2022-12-01T05:13:47.122Z,91.90
2022-12-01T05:16:18.581Z,91.90
2022-12-01T05:19:16.326Z,91.80
2022-12-01T05:21:44.529Z,91.80
2022-12-01T05:24:13.026Z,91.80
2022-12-01T05:26:40.856Z,91.80
2022-12-01T05:29:08.208Z,91.80
2022-12-01T05:31:35.314Z,91.80
2022-12-01T05:34:02.660Z,91.80
2022-12-01T05:36:29.461Z,91.80
2022-12-01T05:38:56.198Z,91.80
2022-12-01T05:41:22.880Z,91.70
2022-12-01T05:43:49.559Z,91.70
2022-12-01T05:46:16.461Z,91.60
2022-12-01T05:48:43.382Z,91.60
2022-12-01T05:51:12.569Z,91.60
2022-12-01T05:53:39.614Z,91.50
2022-12-01T05:56:07.197Z,91.60
2022-12-01T05:58:34.413Z,91.60
2022-12-01T06:01:01.678Z,91.60
2022-12-01T06:03:28.374Z,91.60
2022-12-01T06:05:55.161Z,91.60
2022-12-01T06:08:21.894Z,91.50
2022-12-01T06:10:48.697Z,91.50
2022-12-01T06:13:15.720Z,91.50
2022-12-01T06:15:42.491Z,91.60
2022-12-01T06:18:09.713Z,91.60
2022-12-01T06:20:36.470Z,91.60
2022-12-01T06:23:03.527Z,91.60
2022-12-01T06:25:30.225Z,91.60
2022-12-01T06:27:58.466Z,91.60
2022-12-01T06:30:26.499Z,91.60
2022-12-01T06:32:53.351Z,91.60
2022-12-01T06:35:20.452Z,91.60
2022-12-01T06:37:47.315Z,91.50
2022-12-01T06:40:14.217Z,91.90
2022-12-01T06:42:41.188Z,91.50
2022-12-01T06:45:08.420Z,91.40
2022-12-01T06:47:35.092Z,91.40
2022-12-01T06:50:02.213Z,91.40
2022-12-01T06:52:28.982Z,91.30
2022-12-01T06:54:55.706Z,91.40
2022-12-01T06:57:22.735Z,91.30
2022-12-01T06:59:49.746Z,91.30
2022-12-01T07:02:17.364Z,91.30
2022-12-01T07:04:44.075Z,91.30
2022-12-01T07:07:12.151Z,91.20
2022-12-01T07:09:39.376Z,91.20
2022-12-01T07:12:06.797Z,91.20
2022-12-01T07:14:33.627Z,91.20
2022-12-01T07:17:00.423Z,91.20
2022-12-01T07:19:27.406Z,91.10
2022-12-01T07:21:54.164Z,91.10
2022-12-01T07:24:20.890Z,91.10
2022-12-01T07:26:48.258Z,91.10
2022-12-01T07:29:14.984Z,91.20
2022-12-01T07:31:41.749Z,91.20
2022-12-01T07:34:12.197Z,91.20
2022-12-01T07:36:39.030Z,91.30
2022-12-01T07:39:07.585Z,91.30
2022-12-01T07:41:34.904Z,91.40
2022-12-01T07:44:02.312Z,91.50
2022-12-01T07:46:29.458Z,91.50
2022-12-01T07:48:57.021Z,91.60
2022-12-01T07:51:25.366Z,91.60
2022-12-01T07:53:53.356Z,91.70
2022-12-01T07:56:21.120Z,91.80
2022-12-01T07:58:48.229Z,91.80
2022-12-01T08:01:18.073Z,91.80
2022-12-01T08:03:45.324Z,91.90
2022-12-01T08:06:12.356Z,91.90
2022-12-01T08:08:40.902Z,92.00
2022-12-01T08:11:16.823Z,92.00
2022-12-01T08:13:44.721Z,92.00
2022-12-01T08:16:14.703Z,92.10
2022-12-01T08:18:43.018Z,92.10
2022-12-01T08:21:12.334Z,92.10
2022-12-01T08:23:39.730Z,92.10
2022-12-01T08:26:09.395Z,92.10
2022-12-01T08:28:36.925Z,92.20
2022-12-01T08:31:15.487Z,92.20
2022-12-01T08:33:42.296Z,92.20
2022-12-01T08:36:09.599Z,92.20
2022-12-01T08:38:36.282Z,92.30
2022-12-01T08:41:08.579Z,92.70
2022-12-01T08:46:28.852Z,92.40
2022-12-01T08:48:57.429Z,92.50
2022-12-01T08:51:24.670Z,92.50
2022-12-01T08:53:51.758Z,92.50
2022-12-01T08:56:42.829Z,92.60
2022-12-01T08:59:09.673Z,92.60
2022-12-01T09:01:52.013Z,92.50
2022-12-01T09:04:28.254Z,92.60
2022-12-01T09:06:56.311Z,92.60
2022-12-01T09:09:26.494Z,92.60
2022-12-01T09:11:53.919Z,92.60
2022-12-01T09:14:22.195Z,92.60
2022-12-01T09:16:50.430Z,92.60
2022-12-01T09:19:24.287Z,92.60
2022-12-01T09:21:52.378Z,92.60
2022-12-01T09:24:19.162Z,92.60
2022-12-01T09:26:46.004Z,92.60
2022-12-01T09:29:14.748Z,92.60
2022-12-01T09:31:42.598Z,92.60
2022-12-01T09:34:15.410Z,92.50
2022-12-01T09:36:42.643Z,92.50
2022-12-01T09:39:12.827Z,92.50
2022-12-01T09:41:45.352Z,92.50
2022-12-01T09:44:15.763Z,92.50
2022-12-01T09:46:55.305Z,92.50
2022-12-01T09:49:44.324Z,92.40
2022-12-01T09:52:16.577Z,92.50
2022-12-01T09:54:43.383Z,92.50
2022-12-01T09:57:40.454Z,92.50
2022-12-01T10:00:15.484Z,92.50
2022-12-01T10:03:01.427Z,92.60
2022-12-01T10:05:36.573Z,92.60
2022-12-01T10:08:07.571Z,92.60
2022-12-01T10:10:42.661Z,92.60
2022-12-01T10:13:27.112Z,92.60
2022-12-01T10:16:12.097Z,92.70
2022-12-01T10:19:24.908Z,92.70
2022-12-01T10:22:08.098Z,92.80
2022-12-01T10:24:54.925Z,93.20
2022-12-01T10:27:33.753Z,92.80
2022-12-01T10:30:12.657Z,92.80
2022-12-01T10:32:52.331Z,92.80
2022-12-01T10:35:22.606Z,92.80
2022-12-01T10:37:56.761Z,92.80
2022-12-01T10:40:24.441Z,92.80
2022-12-01T10:42:51.755Z,92.90
2022-12-01T10:45:27.532Z,92.90
2022-12-01T10:48:16.445Z,92.80
2022-12-01T10:50:45.326Z,92.70
2022-12-01T10:53:24.400Z,92.70
2022-12-01T10:56:10.993Z,92.60
2022-12-01T10:58:43.757Z,92.60
2022-12-01T11:01:19.652Z,92.70
2022-12-01T11:03:56.973Z,92.70
2022-12-01T11:06:29.432Z,92.60
2022-12-01T11:09:03.546Z,92.90
2022-12-01T11:11:39.945Z,92.80
2022-12-01T11:14:21.322Z,92.40
2022-12-01T11:16:50.334Z,92.40
2022-12-01T11:19:43.771Z,92.30
2022-12-01T11:22:25.883Z,92.20
2022-12-01T11:24:55.366Z,92.20
2022-12-01T11:27:28.767Z,92.20
2022-12-01T11:29:58.298Z,92.20
2022-12-01T11:32:34.310Z,92.10
2022-12-01T11:35:18.079Z,92.10
2022-12-01T11:38:13.205Z,92.10
2022-12-01T11:41:05.590Z,92.10
2022-12-01T11:43:34.852Z,92.10
2022-12-01T11:46:09.201Z,92.00
2022-12-01T11:48:36.703Z,92.40
2022-12-01T11:51:29.917Z,92.00
2022-12-01T11:54:26.381Z,92.10
2022-12-01T11:57:25.318Z,92.00
2022-12-01T11:59:40.906Z,92.00
2022-12-01T12:02:19.580Z,92.00
2022-12-01T12:04:58.420Z,91.90
2022-12-01T12:07:55.989Z,91.90
2022-12-01T12:11:09.410Z,91.80
2022-12-01T12:13:53.128Z,91.70
2022-12-01T12:16:45.627Z,91.70
2022-12-01T12:20:07.234Z,91.60
2022-12-01T12:23:11.493Z,91.60
2022-12-01T12:26:18.940Z,91.50
2022-12-01T12:29:33.053Z,91.50
2022-12-01T12:32:14.839Z,91.40
2022-12-01T12:34:56.426Z,91.50
2022-12-01T12:38:00.494Z,91.50
2022-12-01T12:40:36.227Z,91.40
2022-12-01T12:43:21.507Z,91.40
2022-12-01T12:46:00.616Z,91.30
2022-12-01T12:48:50.844Z,91.10
2022-12-01T12:51:37.905Z,91.00
2022-12-01T12:54:07.811Z,91.00
2022-12-01T12:56:36.455Z,90.90
2022-12-01T12:59:11.511Z,90.90
2022-12-01T13:02:28.647Z,90.80
2022-12-01T13:05:12.579Z,90.80
2022-12-01T13:07:48.663Z,90.60
2022-12-01T13:10:55.178Z,90.60
2022-12-01T13:13:32.632Z,90.50
2022-12-01T13:16:02.516Z,90.60
2022-12-01T13:18:42.042Z,90.60
2022-12-01T13:21:17.073Z,90.60
2022-12-01T13:23:46.275Z,90.60
2022-12-01T13:26:14.068Z,90.60
2022-12-01T13:28:52.990Z,90.40
2022-12-01T13:31:21.755Z,90.80
2022-12-01T13:33:58.889Z,90.20
2022-12-01T13:39:36.837Z,89.80
2022-12-01T13:42:09.280Z,90.00
2022-12-01T13:44:43.237Z,90.00
2022-12-01T13:47:09.890Z,90.00
2022-12-01T13:49:42.414Z,90.00
2022-12-01T13:52:26.043Z,90.00
2022-12-01T13:55:07.854Z,90.00
2022-12-01T13:57:37.445Z,90.00
2022-12-01T14:00:07.536Z,89.70
2022-12-01T14:02:36.416Z,89.70
2022-12-01T14:05:25.211Z,89.60
2022-12-01T14:07:53.546Z,89.50
2022-12-01T14:10:27.034Z,89.30
2022-12-01T14:12:57.700Z,89.40
2022-12-01T14:15:32.300Z,89.30
2022-12-01T14:18:18.830Z,89.20
2022-12-01T14:20:48.018Z,89.10
2022-12-01T14:23:29.173Z,89.20
2022-12-01T14:26:07.137Z,89.30
2022-12-01T14:28:59.789Z,89.40
2022-12-01T14:31:32.655Z,89.40
2022-12-01T14:34:18.948Z,89.40
2022-12-01T14:37:11.159Z,89.40
2022-12-01T14:39:43.378Z,89.50
2022-12-01T14:42:57.309Z,89.50
2022-12-01T14:45:40.600Z,89.50
2022-12-01T14:48:15.356Z,89.50
2022-12-01T14:50:49.345Z,89.50
2022-12-01T14:53:30.601Z,89.50
2022-12-01T14:56:08.357Z,89.50
2022-12-01T14:58:35.032Z,89.60
2022-12-01T15:01:08.908Z,89.60
2022-12-01T15:03:43.397Z,89.50
2022-12-01T15:06:15.950Z,89.50
2022-12-01T15:08:53.400Z,89.50
2022-12-01T15:11:32.264Z,89.50
2022-12-01T15:14:02.198Z,89.40
2022-12-01T15:16:40.324Z,89.40
2022-12-01T15:19:31.905Z,89.40
2022-12-01T15:22:02.366Z,89.30
2022-12-01T15:24:30.947Z,89.30
2022-12-01T15:27:03.474Z,88.90
2022-12-01T15:29:34.769Z,89.00
2022-12-01T15:32:05.862Z,89.10
2022-12-01T15:34:37.027Z,89.00
2022-12-01T15:37:06.970Z,88.90
2022-12-01T15:39:44.013Z,88.90
2022-12-01T15:42:33.459Z,88.90
2022-12-01T15:45:03.177Z,88.90
2022-12-01T15:47:45.718Z,88.90
2022-12-01T15:50:38.674Z,88.90
2022-12-01T15:53:23.640Z,88.80
2022-12-01T15:55:57.130Z,88.90
2022-12-01T15:58:29.702Z,88.90
2022-12-01T16:01:00.360Z,88.90
2022-12-01T16:03:27.681Z,88.90
2022-12-01T16:05:55.548Z,88.90
2022-12-01T16:08:26.062Z,88.80
2022-12-01T16:11:22.045Z,88.70
2022-12-01T16:14:21.874Z,88.70
2022-12-01T16:16:51.076Z,88.70
2022-12-01T16:19:17.754Z,88.60
2022-12-01T16:21:48.702Z,88.60
2022-12-01T16:24:27.466Z,89.40
2022-12-01T16:27:01.174Z,88.50
2022-12-01T16:29:29.906Z,88.50
2022-12-01T16:32:23.418Z,88.50
2022-12-01T16:34:52.466Z,88.50
2022-12-01T16:37:19.912Z,88.60
2022-12-01T16:39:46.658Z,88.50
2022-12-01T16:42:16.804Z,88.60
2022-12-01T16:44:48.156Z,88.60
2022-12-01T16:47:24.082Z,88.60
2022-12-01T16:49:52.102Z,88.60
2022-12-01T16:52:43.572Z,88.50
2022-12-01T16:55:37.957Z,88.50
2022-12-01T16:58:05.108Z,88.70
2022-12-01T17:00:32.206Z,88.80
2022-12-01T17:02:59.548Z,88.80
2022-12-01T17:05:26.435Z,88.90
2022-12-01T17:07:53.326Z,89.00
2022-12-01T17:10:21.352Z,89.00
2022-12-01T17:12:48.158Z,89.10
2022-12-01T17:15:15.249Z,89.10
2022-12-01T17:17:42.096Z,89.10
2022-12-01T17:20:10.106Z,88.90
2022-12-01T17:22:37.148Z,88.90
2022-12-01T17:25:04.694Z,88.90
2022-12-01T17:27:32.337Z,88.90
2022-12-01T17:29:59.334Z,89.00
2022-12-01T17:32:27.423Z,89.00
2022-12-01T17:34:54.442Z,88.90
2022-12-01T17:37:21.577Z,89.00
2022-12-01T17:39:49.266Z,88.90
2022-12-01T17:42:16.427Z,88.90
2022-12-01T17:44:43.152Z,89.70
2022-12-01T17:47:09.915Z,88.90
2022-12-01T17:49:36.740Z,89.70
2022-12-01T17:52:08.200Z,88.80
2022-12-01T17:54:38.284Z,88.80
2022-12-01T17:57:06.642Z,88.80
2022-12-01T17:59:34.416Z,88.80
2022-12-01T18:02:01.181Z,88.80
2022-12-01T18:04:27.932Z,88.80
2022-12-01T18:06:54.841Z,88.80
2022-12-01T18:09:21.936Z,88.80
2022-12-01T18:11:48.925Z,88.70
2022-12-01T18:14:18.691Z,88.80
2022-12-01T18:16:45.857Z,88.70
2022-12-01T18:19:13.009Z,88.60
2022-12-01T18:21:40.226Z,88.70
2022-12-01T18:24:10.925Z,88.70
2022-12-01T18:26:40.236Z,88.70
2022-12-01T18:29:12.476Z,88.70
2022-12-01T18:31:39.410Z,88.70
2022-12-01T18:34:07.542Z,88.70
2022-12-01T18:36:37.353Z,88.70
2022-12-01T18:39:06.755Z,88.70
2022-12-01T18:41:34.582Z,88.70
2022-12-01T18:44:01.627Z,88.70
2022-12-01T18:46:29.034Z,88.70
2022-12-01T18:49:03.191Z,88.70
2022-12-01T18:51:31.555Z,88.60
2022-12-01T18:54:00.622Z,88.70
2022-12-01T18:56:28.006Z,88.70
2022-12-01T18:58:56.591Z,88.60
2022-12-01T19:01:28.719Z,88.70
2022-12-01T19:03:56.590Z,88.70
2022-12-01T19:06:24.404Z,88.70
2022-12-01T19:08:51.969Z,88.80
2022-12-01T19:11:18.841Z,88.80
2022-12-01T19:13:46.220Z,88.90
2022-12-01T19:16:18.307Z,89.00
2022-12-01T19:18:45.586Z,89.00
2022-12-01T19:21:14.658Z,89.00
2022-12-01T19:23:41.891Z,89.00
2022-12-01T19:26:12.118Z,89.00
2022-12-01T19:28:40.348Z,89.00
2022-12-01T19:31:13.135Z,89.00
2022-12-01T19:33:40.290Z,89.80
2022-12-01T19:36:09.977Z,89.00
2022-12-01T19:38:36.871Z,89.00
2022-12-01T19:41:04.238Z,89.00
2022-12-01T19:43:31.025Z,89.00
2022-12-01T19:45:57.803Z,89.10
2022-12-01T19:48:24.559Z,89.10
2022-12-01T19:50:51.197Z,89.20
2022-12-01T19:53:17.850Z,89.20
2022-12-01T19:55:44.577Z,89.30
2022-12-01T19:58:11.208Z,89.40
2022-12-01T20:00:37.951Z,89.50
2022-12-01T20:03:04.836Z,89.60
2022-12-01T20:05:32.524Z,89.80
2022-12-01T20:07:59.297Z,89.80
2022-12-01T20:10:26.076Z,90.00
2022-12-01T20:12:52.917Z,90.00
2022-12-01T20:15:19.715Z,90.10
2022-12-01T20:17:46.446Z,90.20
2022-12-01T20:20:13.446Z,90.20
2022-12-01T20:22:40.238Z,90.30
2022-12-01T20:25:07.395Z,90.30
2022-12-01T20:27:34.088Z,90.40
2022-12-01T20:30:00.769Z,90.40
2022-12-01T20:32:28.181Z,90.60
2022-12-01T20:34:54.892Z,90.60
2022-12-01T20:37:21.605Z,90.70
2022-12-01T20:39:48.333Z,90.80
2022-12-01T20:42:15.169Z,90.80
2022-12-01T20:44:41.890Z,90.90
2022-12-01T20:47:08.568Z,90.90
2022-12-01T20:49:35.230Z,91.00
2022-12-01T20:52:01.959Z,91.00
2022-12-01T20:54:30.048Z,91.10
2022-12-01T20:56:57.980Z,91.20
2022-12-01T20:59:24.780Z,91.20
2022-12-01T21:01:51.627Z,91.20
2022-12-01T21:04:18.302Z,91.20
2022-12-01T21:06:45.362Z,91.20
2022-12-01T21:09:13.204Z,91.20
2022-12-01T21:12:06.973Z,91.20
2022-12-01T21:14:42.453Z,91.20
2022-12-01T21:17:35.332Z,91.20
2022-12-01T21:20:08.904Z,91.30
2022-12-01T21:22:36.363Z,91.30
2022-12-01T21:25:12.394Z,91.30
2022-12-01T21:27:39.129Z,91.30
2022-12-01T21:30:22.008Z,91.30
2022-12-01T21:32:49.620Z,91.40
2022-12-01T21:35:27.528Z,91.40
2022-12-01T21:38:00.413Z,91.40
2022-12-01T21:40:27.553Z,91.40
2022-12-01T21:42:56.434Z,91.40
2022-12-01T21:45:28.455Z,91.40
2022-12-01T21:48:13.012Z,91.40
2022-12-01T21:50:39.701Z,91.40
2022-12-01T21:53:16.274Z,91.40
2022-12-01T21:55:46.126Z,91.40
2022-12-01T21:58:31.080Z,91.40
2022-12-01T22:00:59.383Z,91.40
2022-12-01T22:03:44.357Z,91.40
2022-12-01T22:06:35.002Z,91.70
2022-12-01T22:09:14.437Z,91.40
2022-12-01T22:11:44.779Z,91.40
2022-12-01T22:14:15.392Z,91.40
2022-12-01T22:16:42.051Z,91.30
2022-12-01T22:19:14.621Z,91.40
2022-12-01T22:22:03.504Z,91.40
2022-12-01T22:24:42.497Z,91.40
2022-12-01T22:27:28.455Z,91.40
2022-12-01T22:30:01.022Z,91.40
2022-12-01T22:32:32.473Z,91.40
2022-12-01T22:35:09.757Z,91.40
2022-12-01T22:38:14.336Z,91.40
2022-12-01T22:40:43.896Z,91.40
2022-12-01T22:43:16.663Z,91.40
2022-12-01T22:46:10.198Z,91.40
2022-12-01T22:48:43.199Z,91.40
2022-12-01T22:51:12.656Z,91.40
2022-12-01T22:53:40.418Z,91.50
2022-12-01T22:56:32.224Z,91.50
2022-12-01T22:58:59.096Z,91.50
2022-12-01T23:01:30.195Z,91.90
2022-12-01T23:04:29.645Z,91.50
2022-12-01T23:07:29.353Z,91.50
2022-12-01T23:10:02.935Z,91.60
2022-12-01T23:12:32.262Z,91.60
2022-12-01T23:15:39.089Z,91.60
2022-12-01T23:18:11.887Z,91.60
2022-12-01T23:20:38.928Z,91.60
2022-12-01T23:23:29.544Z,91.60
2022-12-01T23:25:56.721Z,91.60
2022-12-01T23:28:24.898Z,91.60
2022-12-01T23:30:54.372Z,91.60
2022-12-01T23:33:31.984Z,91.70
2022-12-01T23:36:02.083Z,91.60
2022-12-01T23:38:39.502Z,91.70
2022-12-01T23:41:12.493Z,91.60
2022-12-01T23:43:41.583Z,91.60
2022-12-01T23:46:12.899Z,91.60
2022-12-01T23:48:49.209Z,91.60
2022-12-01T23:51:20.321Z,91.60
2022-12-01T23:53:47.282Z,91.60
2022-12-01T23:56:19.816Z,91.60
2022-12-01T23:58:46.987Z,91.60
